Time;durP1;ratioP1;P1;durP2;ratioP2;P2;SDS_P1;SDS_P2;PMS_P1;PMS_P2;Temp;Humidity;BMP_temperature;BMP_pressure;BME280_temperature;BME280_humidity;BME280_pressure;Samples;Min_cycle;Max_cycle;Signal;HPM_P1;HPM_P2
2021/12/05 00:22:40;;;;;;;70.23;63.03;;;0.90;99.90;;;;;;5071990;27;20215;-64
2021/12/05 00:25:31;;;;;;;69.50;60.53;;;0.90;99.90;;;;;;5094316;27;20215;-64
2021/12/05 00:50:50;;;;;;;70.03;62.37;;;0.80;99.90;;;;;;5107106;27;20218;-64
2021/12/05 00:54:19;;;;;;;71.90;64.07;;;0.70;99.90;;;;;;5092212;28;20603;-64
2021/12/05 00:57:33;;;;;;;72.33;64.87;;;0.80;99.90;;;;;;5095464;28;20235;-64
2021/12/05 01:00:44;;;;;;;74.33;66.07;;;0.90;99.90;;;;;;5096428;28;20243;-63
2021/12/05 01:03:52;;;;;;;73.10;64.97;;;0.90;99.90;;;;;;5095248;28;20364;-64
2021/12/05 01:07:06;;;;;;;77.60;67.80;;;0.90;99.90;;;;;;5091694;28;20223;-65
2021/12/05 01:10:08;;;;;;;83.87;72.87;;;0.90;99.90;;;;;;5090909;28;20235;-64
2021/12/05 01:13:34;;;;;;;71.50;62.13;;;0.80;99.90;;;;;;5091199;27;20674;-65
2021/12/05 01:16:25;;;;;;;75.57;64.37;;;0.80;99.90;;;;;;5096045;28;20226;-64
2021/12/05 01:19:19;;;;;;;71.00;63.40;;;0.80;99.90;;;;;;5092705;28;20224;-64
2021/12/05 01:22:12;;;;;;;75.77;65.83;;;0.80;99.90;;;;;;5093832;28;20215;-63
2021/12/05 01:25:13;;;;;;;69.63;62.13;;;0.90;99.90;;;;;;5093940;28;20936;-65
2021/12/05 01:28:11;;;;;;;70.27;62.23;;;0.80;99.90;;;;;;5086971;28;20227;-62
2021/12/05 01:31:11;;;;;;;70.10;62.53;;;0.80;99.90;;;;;;5060720;28;20948;-66
2021/12/05 01:34:11;;;;;;;71.33;63.37;;;0.70;99.90;;;;;;5063275;28;20298;-64
2021/12/05 01:37:11;;;;;;;68.00;60.57;;;0.70;99.90;;;;;;5060305;28;20711;-64
2021/12/05 01:40:27;;;;;;;68.10;60.77;;;0.60;99.90;;;;;;5062459;28;20208;-64
2021/12/05 01:50:06;;;;;;;71.83;63.90;;;0.60;99.90;;;;;;5056978;28;20231;-64
2021/12/05 01:53:19;;;;;;;73.00;65.20;;;0.60;99.90;;;;;;5074284;28;20231;-62
2021/12/05 01:56:36;;;;;;;72.80;64.83;;;0.80;99.90;;;;;;5073887;28;20231;-64
2021/12/05 01:59:35;;;;;;;70.80;63.23;;;0.80;99.90;;;;;;5061721;28;20244;-64
2021/12/05 02:12:10;;;;;;;73.57;64.63;;;0.60;99.90;;;;;;5057322;28;20216;-64
2021/12/05 02:37:08;;;;;;;71.97;64.30;;;0.80;99.90;;;;;;5095126;27;20296;-65
2021/12/05 02:43:07;;;;;;;74.10;66.07;;;0.80;99.90;;;;;;5094675;28;20356;-65
2021/12/05 02:45:59;;;;;;;76.10;66.47;;;0.80;99.90;;;;;;5100100;27;20274;-66
2021/12/05 02:48:48;;;;;;;71.20;62.70;;;0.90;99.90;;;;;;5092539;28;20219;-66
2021/12/05 02:51:38;;;;;;;71.93;64.37;;;0.80;99.90;;;;;;5099481;28;20234;-66
2021/12/05 02:54:31;;;;;;;71.77;63.70;;;0.90;99.90;;;;;;5097105;27;20234;-66
2021/12/05 02:57:34;;;;;;;73.57;65.53;;;0.90;99.90;;;;;;5108133;27;20229;-66
2021/12/05 03:00:36;;;;;;;73.47;65.53;;;1.00;99.90;;;;;;5121309;27;20234;-64
2021/12/05 03:03:30;;;;;;;71.77;63.90;;;0.90;99.90;;;;;;5093538;28;20234;-66
2021/12/05 03:06:24;;;;;;;71.17;62.93;;;1.00;99.90;;;;;;5096759;28;20233;-66
2021/12/05 03:09:14;;;;;;;70.57;63.27;;;1.00;99.90;;;;;;5095413;27;20219;-65
2021/12/05 03:12:07;;;;;;;69.67;62.03;;;0.80;99.90;;;;;;5099557;27;20222;-64
2021/12/05 03:15:04;;;;;;;73.63;63.50;;;0.90;99.90;;;;;;5104736;27;20223;-64
2021/12/05 03:17:54;;;;;;;74.17;66.17;;;0.70;99.90;;;;;;5096993;27;20227;-64
2021/12/05 03:20:44;;;;;;;72.20;62.53;;;0.70;99.90;;;;;;5092253;28;20594;-65
2021/12/05 03:23:33;;;;;;;70.47;62.77;;;0.60;99.90;;;;;;5078110;28;20300;-66
2021/12/05 03:26:26;;;;;;;70.93;63.37;;;0.60;99.90;;;;;;5093115;27;20376;-66
2021/12/05 03:29:18;;;;;;;67.80;60.73;;;0.80;99.90;;;;;;5096999;27;20256;-66
2021/12/05 03:32:07;;;;;;;68.23;60.93;;;0.70;99.90;;;;;;5094790;27;20583;-66
2021/12/05 03:34:56;;;;;;;65.83;58.83;;;0.40;99.90;;;;;;5093819;28;20223;-65
2021/12/05 03:37:46;;;;;;;65.73;59.07;;;0.50;99.90;;;;;;5093715;28;20225;-64
2021/12/05 03:40:36;;;;;;;69.80;62.43;;;0.30;99.90;;;;;;5094469;27;20316;-65
2021/12/05 03:43:28;;;;;;;67.60;60.80;;;0.30;99.90;;;;;;5097080;27;20217;-65
2021/12/05 03:46:19;;;;;;;68.77;61.80;;;0.40;99.90;;;;;;5097033;28;20279;-65
2021/12/05 03:49:11;;;;;;;65.10;58.53;;;0.30;99.90;;;;;;5093146;27;20330;-66
2021/12/05 03:52:05;;;;;;;65.30;58.63;;;0.30;99.90;;;;;;5091893;28;20222;-64
2021/12/05 03:54:54;;;;;;;69.77;62.27;;;0.10;99.90;;;;;;5091219;27;20714;-66
2021/12/05 03:57:43;;;;;;;68.07;61.07;;;0.20;99.90;;;;;;5095254;28;20279;-65
2021/12/05 04:00:38;;;;;;;67.03;59.90;;;0.20;99.90;;;;;;5096438;27;20291;-66
2021/12/05 04:03:29;;;;;;;69.93;62.93;;;0.10;99.90;;;;;;5095496;27;20305;-63
2021/12/05 04:06:21;;;;;;;71.10;63.53;;;0.20;99.90;;;;;;5098764;28;20226;-65
2021/12/05 04:09:13;;;;;;;66.93;60.07;;;0.20;99.90;;;;;;5097509;28;21049;-64
2021/12/05 04:12:07;;;;;;;71.13;63.63;;;0.20;99.90;;;;;;5093042;28;20241;-65
2021/12/05 04:14:58;;;;;;;69.20;62.00;;;0.30;99.90;;;;;;5106155;27;20211;-64
2021/12/05 04:17:48;;;;;;;70.33;63.13;;;0.20;99.90;;;;;;5092672;28;20233;-64
2021/12/05 04:20:38;;;;;;;69.90;62.43;;;0.10;99.90;;;;;;5098597;28;20221;-64
2021/12/05 04:23:28;;;;;;;70.87;63.77;;;0.00;99.90;;;;;;5095108;28;20240;-66
2021/12/05 04:26:18;;;;;;;70.30;62.83;;;0.10;99.90;;;;;;5094622;28;20311;-63
2021/12/05 04:29:08;;;;;;;69.63;62.43;;;0.20;99.90;;;;;;5097497;28;20576;-64
2021/12/05 04:31:57;;;;;;;69.20;62.20;;;0.20;99.90;;;;;;5097024;27;20241;-64
2021/12/05 04:34:48;;;;;;;69.73;62.63;;;0.30;99.90;;;;;;5082414;28;20337;-67
2021/12/05 04:37:39;;;;;;;71.53;64.40;;;0.30;99.90;;;;;;5094548;28;20314;-65
2021/12/05 04:40:29;;;;;;;71.90;64.20;;;0.30;99.90;;;;;;5093560;28;20270;-65
2021/12/05 04:43:19;;;;;;;70.00;62.87;;;0.10;99.90;;;;;;5096213;27;20226;-66
2021/12/05 04:46:10;;;;;;;68.63;61.57;;;0.20;99.90;;;;;;5094014;28;20308;-65
2021/12/05 04:48:59;;;;;;;69.20;62.53;;;0.20;99.90;;;;;;5094189;28;20539;-65
2021/12/05 04:51:48;;;;;;;69.07;62.07;;;0.00;99.90;;;;;;5096142;27;20513;-65
2021/12/05 04:54:39;;;;;;;68.30;61.33;;;0.10;99.90;;;;;;5093458;28;20221;-64
2021/12/05 04:57:28;;;;;;;67.60;60.80;;;0.00;99.90;;;;;;5095657;28;20248;-63
2021/12/05 05:00:23;;;;;;;69.90;62.90;;;0.00;99.90;;;;;;5106817;27;20242;-66
2021/12/05 05:03:13;;;;;;;71.50;63.97;;;0.00;99.90;;;;;;5090056;28;20229;-66
2021/12/05 05:06:05;;;;;;;67.57;60.67;;;0.00;99.90;;;;;;5097203;28;20219;-65
2021/12/05 05:08:56;;;;;;;70.07;62.57;;;0.00;99.90;;;;;;5093388;28;20225;-65
2021/12/05 05:11:46;;;;;;;70.03;62.70;;;0.10;99.90;;;;;;5093536;28;20234;-65
2021/12/05 05:14:35;;;;;;;67.97;61.23;;;0.00;99.90;;;;;;5095385;27;20227;-64
2021/12/05 05:17:24;;;;;;;72.37;64.93;;;0.00;99.90;;;;;;5100131;28;20247;-66
2021/12/05 05:20:21;;;;;;;69.93;62.93;;;0.00;99.90;;;;;;5094382;28;20252;-64
2021/12/05 05:23:23;;;;;;;70.13;63.03;;;0.00;99.90;;;;;;5099621;28;20275;-64
2021/12/05 05:29:38;;;;;;;68.23;61.67;;;0.00;99.90;;;;;;5096920;28;20224;-66
2021/12/05 05:42:16;;;;;;;67.30;60.53;;;0.10;99.90;;;;;;5094067;28;20704;-66
2021/12/05 05:45:42;;;;;;;68.77;61.90;;;0.10;99.90;;;;;;5093958;28;20314;-64
2021/12/05 05:48:41;;;;;;;70.70;63.47;;;0.20;99.90;;;;;;5092272;28;20239;-64
2021/12/05 05:51:30;;;;;;;70.63;63.23;;;0.10;99.90;;;;;;5110449;27;20241;-65
2021/12/05 05:54:19;;;;;;;68.17;61.30;;;0.20;99.90;;;;;;5098312;27;20234;-66
2021/12/05 05:57:15;;;;;;;68.77;61.63;;;0.00;99.90;;;;;;5091881;28;20234;-66
2021/12/05 06:00:13;;;;;;;70.93;62.87;;;-0.20;99.90;;;;;;5109572;27;20207;-65
2021/12/05 06:03:22;;;;;;;68.90;61.90;;;-0.10;99.90;;;;;;5097228;27;20240;-64
2021/12/05 06:06:13;;;;;;;71.97;64.60;;;0.00;99.90;;;;;;5097281;27;20226;-65
2021/12/05 06:09:03;;;;;;;71.80;64.13;;;0.00;99.90;;;;;;5093650;28;20219;-64
2021/12/05 06:11:52;;;;;;;70.97;63.40;;;0.00;99.90;;;;;;5098874;27;20233;-65
2021/12/05 06:14:40;;;;;;;73.17;65.97;;;0.00;99.90;;;;;;5097164;28;20233;-65
2021/12/05 06:17:31;;;;;;;71.60;64.47;;;0.10;99.90;;;;;;5096730;27;20224;-65
2021/12/05 06:20:26;;;;;;;68.93;61.60;;;0.20;99.90;;;;;;5094483;27;20305;-65
2021/12/05 06:23:20;;;;;;;71.10;63.70;;;-0.10;99.90;;;;;;5096338;28;20218;-65
2021/12/05 06:26:12;;;;;;;69.07;61.80;;;0.20;99.90;;;;;;5095616;28;20314;-65
2021/12/05 06:29:07;;;;;;;69.27;61.83;;;0.20;99.90;;;;;;5104381;27;20234;-65
2021/12/05 06:32:19;;;;;;;70.90;59.57;;;0.00;99.90;;;;;;5101463;28;20221;-63
2021/12/05 06:38:40;;;;;;;69.97;62.33;;;-0.10;99.90;;;;;;5094455;28;20221;-65
2021/12/05 06:41:47;;;;;;;70.97;63.60;;;-0.10;99.90;;;;;;5094996;28;20227;-64
2021/12/05 06:47:43;;;;;;;69.00;61.27;;;0.00;99.90;;;;;;5099999;27;20232;-65
2021/12/05 06:50:33;;;;;;;76.73;68.33;;;-0.10;99.90;;;;;;5094744;28;20229;-64
2021/12/05 06:53:22;;;;;;;70.53;63.23;;;-0.20;99.90;;;;;;5095702;28;20327;-65
2021/12/05 06:56:11;;;;;;;70.77;63.53;;;-0.20;99.90;;;;;;5097119;28;20213;-65
2021/12/05 06:59:00;;;;;;;69.40;61.97;;;0.00;99.90;;;;;;5094010;28;20228;-65
2021/12/05 07:01:49;;;;;;;70.20;62.70;;;-0.10;99.90;;;;;;5100828;27;20232;-62
2021/12/05 07:05:03;;;;;;;69.90;62.57;;;-0.20;99.90;;;;;;5100106;27;20316;-63
2021/12/05 07:07:54;;;;;;;68.63;60.93;;;-0.10;99.90;;;;;;5099199;27;20227;-63
2021/12/05 07:10:50;;;;;;;70.90;63.20;;;0.10;99.90;;;;;;5099900;27;20332;-63
2021/12/05 07:14:14;;;;;;;69.97;62.80;;;-0.10;99.90;;;;;;5102450;27;20733;-65
2021/12/05 07:17:07;;;;;;;71.73;64.23;;;0.10;99.90;;;;;;5105023;28;20229;-62
2021/12/05 07:20:10;;;;;;;73.23;65.47;;;0.20;99.90;;;;;;5099121;28;20220;-64
2021/12/05 07:23:15;;;;;;;70.10;62.20;;;0.30;99.90;;;;;;5093992;28;20706;-64
2021/12/05 07:26:11;;;;;;;70.57;62.93;;;0.20;99.90;;;;;;5099137;27;20223;-65
2021/12/05 07:41:49;;;;;;;70.23;63.03;;;0.40;99.90;;;;;;5095199;28;20724;-65
2021/12/05 07:44:37;;;;;;;65.90;58.80;;;0.60;99.90;;;;;;5093458;27;20480;-65
2021/12/05 07:47:32;;;;;;;68.67;61.73;;;0.50;99.90;;;;;;5095099;28;20349;-64
2021/12/05 07:50:31;;;;;;;70.50;63.23;;;0.40;99.90;;;;;;5095382;27;20713;-63
2021/12/05 07:53:28;;;;;;;68.20;61.10;;;0.40;99.90;;;;;;5094957;27;20222;-65
2021/12/05 07:56:26;;;;;;;72.93;65.43;;;0.40;99.90;;;;;;5099968;27;20220;-65
2021/12/05 07:59:30;;;;;;;69.83;62.70;;;0.40;99.90;;;;;;5098419;27;20246;-64
2021/12/05 08:14:38;;;;;;;71.10;63.30;;;0.60;99.90;;;;;;5095793;27;20242;-64
2021/12/05 08:17:27;;;;;;;71.87;64.00;;;0.60;99.90;;;;;;5096207;28;20242;-66
2021/12/05 08:20:15;;;;;;;67.33;60.27;;;0.70;99.90;;;;;;5095683;27;20230;-64
2021/12/05 08:23:05;;;;;;;82.07;64.07;;;0.70;99.90;;;;;;5099366;27;20352;-64
2021/12/05 08:26:03;;;;;;;71.00;63.50;;;0.80;99.90;;;;;;5097406;28;20222;-64
2021/12/05 08:29:06;;;;;;;70.80;63.53;;;0.80;99.90;;;;;;5096499;27;20223;-65
2021/12/05 08:35:16;;;;;;;68.30;61.10;;;1.00;99.90;;;;;;5097477;27;20216;-63
2021/12/05 09:25:39;;;;;;;67.80;60.70;;;1.30;99.90;;;;;;5077299;28;20277;-67
2021/12/05 10:01:54;;;;;;;68.63;61.93;;;1.90;99.90;;;;;;5092997;28;20341;-65
2021/12/05 10:03:08;;;;;;;66.33;59.33;;;2.00;99.90;;;;;;5092194;28;20225;-63
2021/12/05 10:09:13;;;;;;;65.83;59.40;;;2.10;99.90;;;;;;5093673;28;20242;-65
2021/12/05 10:12:20;;;;;;;67.20;60.40;;;2.10;99.90;;;;;;5099056;28;20223;-64
2021/12/05 10:15:28;;;;;;;69.43;62.83;;;2.10;99.90;;;;;;5096454;28;20330;-64
2021/12/05 10:34:03;;;;;;;65.87;59.33;;;2.00;99.90;;;;;;5094436;28;20657;-65
2021/12/05 10:37:06;;;;;;;66.13;59.53;;;2.20;99.90;;;;;;5098024;27;20219;-66
2021/12/05 10:40:07;;;;;;;64.30;58.03;;;2.20;99.90;;;;;;5096388;27;20584;-66
2021/12/05 10:42:56;;;;;;;66.80;60.27;;;2.10;99.90;;;;;;5094458;28;20275;-68
2021/12/05 10:45:47;;;;;;;65.20;58.87;;;2.00;99.90;;;;;;5090830;28;21036;-66
2021/12/05 10:48:38;;;;;;;63.73;57.63;;;2.10;99.90;;;;;;5097669;27;20228;-66
2021/12/05 10:51:32;;;;;;;65.43;59.07;;;2.20;99.90;;;;;;5099701;27;20590;-63
2021/12/05 10:54:22;;;;;;;67.63;60.90;;;2.20;99.90;;;;;;5095758;28;20234;-64
2021/12/05 10:57:13;;;;;;;61.90;55.97;;;2.10;99.90;;;;;;5098895;27;20215;-64
2021/12/05 11:00:12;;;;;;;66.70;60.00;;;2.10;99.90;;;;;;5099646;28;20207;-65
2021/12/05 11:03:14;;;;;;;64.33;58.07;;;2.00;99.90;;;;;;5098471;28;20417;-64
2021/12/05 11:06:03;;;;;;;65.40;58.57;;;1.90;99.90;;;;;;5097759;27;20218;-66
2021/12/05 11:08:56;;;;;;;64.23;58.03;;;2.00;99.90;;;;;;5096678;28;20305;-67
2021/12/05 11:11:47;;;;;;;64.20;58.10;;;2.10;99.90;;;;;;5096755;27;20222;-63
2021/12/05 11:14:38;;;;;;;62.27;56.47;;;2.20;99.90;;;;;;5100143;27;20219;-65
2021/12/05 11:17:29;;;;;;;64.53;58.20;;;2.00;99.90;;;;;;5096727;27;20237;-65
2021/12/05 11:20:29;;;;;;;59.77;53.90;;;2.10;99.90;;;;;;5097054;27;20234;-66
2021/12/05 11:23:18;;;;;;;65.07;58.57;;;2.10;99.90;;;;;;5098616;28;20223;-65
2021/12/05 11:26:18;;;;;;;63.77;57.77;;;1.90;99.90;;;;;;5098260;27;20215;-67
2021/12/05 11:29:08;;;;;;;65.87;59.30;;;2.10;99.90;;;;;;5096715;27;20234;-66
2021/12/05 11:32:07;;;;;;;65.80;59.40;;;2.20;99.90;;;;;;5095154;27;20227;-64
2021/12/05 11:34:56;;;;;;;65.40;59.20;;;2.20;99.90;;;;;;5099782;28;20222;-65
2021/12/05 11:38:07;;;;;;;62.10;55.83;;;1.90;99.90;;;;;;5099970;27;20507;-64
2021/12/05 11:40:59;;;;;;;62.93;56.93;;;2.00;99.90;;;;;;5111981;27;20210;-64
2021/12/05 11:43:52;;;;;;;62.43;56.47;;;2.10;99.90;;;;;;5100222;28;20741;-64
2021/12/05 11:46:44;;;;;;;63.87;57.73;;;2.20;99.90;;;;;;5113420;27;20326;-61
2021/12/05 11:49:35;;;;;;;63.80;57.67;;;2.30;99.90;;;;;;5098340;28;20230;-66
2021/12/05 11:52:25;;;;;;;62.97;57.23;;;2.20;99.90;;;;;;5098577;28;20218;-66
2021/12/05 11:55:21;;;;;;;62.73;56.90;;;2.10;99.90;;;;;;5097210;28;20231;-66
2021/12/05 11:58:18;;;;;;;62.63;56.70;;;2.30;99.90;;;;;;5098789;27;20218;-67
2021/12/05 12:01:12;;;;;;;61.67;55.97;;;2.30;99.90;;;;;;5100219;27;20333;-66
2021/12/05 12:04:02;;;;;;;61.63;56.07;;;2.30;99.90;;;;;;5096577;28;20238;-66
2021/12/05 12:07:09;;;;;;;61.70;55.70;;;2.20;99.90;;;;;;5095915;27;20595;-66
2021/12/05 12:10:01;;;;;;;64.17;58.00;;;2.20;99.90;;;;;;5098359;27;20706;-66
2021/12/05 12:12:52;;;;;;;64.20;58.20;;;2.10;99.90;;;;;;5095585;28;20320;-64
2021/12/05 12:15:43;;;;;;;66.20;59.60;;;2.10;99.90;;;;;;5097694;28;20226;-64
2021/12/05 12:18:38;;;;;;;67.40;60.83;;;2.00;99.90;;;;;;5093459;27;20251;-64
2021/12/05 12:21:37;;;;;;;63.37;57.20;;;2.00;99.90;;;;;;5095119;27;20323;-64
2021/12/05 12:24:27;;;;;;;64.60;58.30;;;2.00;99.90;;;;;;5092962;27;20572;-65
2021/12/05 12:27:16;;;;;;;66.17;59.57;;;1.90;99.90;;;;;;5091589;27;20293;-65
2021/12/05 12:30:09;;;;;;;63.87;57.70;;;1.80;99.90;;;;;;5097312;27;20223;-64
2021/12/05 12:33:04;;;;;;;68.43;61.63;;;1.80;99.90;;;;;;5096991;27;20722;-63
2021/12/05 12:35:55;;;;;;;65.57;58.77;;;1.80;99.90;;;;;;5101329;27;20215;-64
2021/12/05 12:38:45;;;;;;;66.13;59.47;;;1.70;99.90;;;;;;5091866;27;20662;-65
2021/12/05 12:41:34;;;;;;;63.70;57.33;;;1.80;99.90;;;;;;5099643;28;20218;-64
2021/12/05 12:44:26;;;;;;;67.83;60.90;;;1.60;99.90;;;;;;5098595;28;20713;-64
2021/12/05 12:47:15;;;;;;;68.63;61.53;;;1.70;99.90;;;;;;5098594;27;20715;-63
2021/12/05 12:50:24;;;;;;;69.70;62.47;;;1.70;99.90;;;;;;5111290;27;20291;-64
2021/12/05 12:53:18;;;;;;;69.70;62.40;;;1.80;99.90;;;;;;5098271;27;20274;-62
2021/12/05 12:56:11;;;;;;;72.53;65.23;;;1.60;99.90;;;;;;5098029;28;20233;-63
2021/12/05 12:59:05;;;;;;;67.17;60.37;;;1.60;99.90;;;;;;5097491;28;20219;-64
2021/12/05 13:02:26;;;;;;;67.50;60.33;;;1.60;99.90;;;;;;5095619;28;20307;-62
2021/12/05 13:05:40;;;;;;;72.73;65.43;;;1.70;99.90;;;;;;5094754;27;20249;-66
2021/12/05 13:11:48;;;;;;;68.70;61.37;;;1.60;99.90;;;;;;5095795;28;20219;-66
2021/12/05 13:15:01;;;;;;;74.77;66.40;;;1.70;99.90;;;;;;5097594;27;20246;-64
2021/12/05 13:17:52;;;;;;;74.17;66.43;;;1.80;99.90;;;;;;5096106;27;20301;-64
2021/12/05 13:20:56;;;;;;;72.53;64.87;;;1.80;99.90;;;;;;5096642;27;20295;-66
2021/12/05 13:23:50;;;;;;;71.77;64.17;;;1.80;99.90;;;;;;5094476;28;20222;-65
2021/12/05 13:26:40;;;;;;;70.53;63.33;;;1.80;99.90;;;;;;5095542;28;20322;-63
2021/12/05 13:29:31;;;;;;;73.73;65.63;;;1.90;99.90;;;;;;5098963;28;20226;-66
2021/12/05 13:32:25;;;;;;;72.43;64.73;;;1.90;99.90;;;;;;5095878;28;20291;-64
2021/12/05 13:35:26;;;;;;;73.80;65.87;;;1.80;99.90;;;;;;5099430;27;20218;-62
2021/12/05 13:38:33;;;;;;;76.73;68.67;;;1.90;99.90;;;;;;5095192;28;21659;-65
2021/12/05 13:41:23;;;;;;;75.83;67.57;;;2.00;99.90;;;;;;5109315;27;20702;-66
2021/12/05 13:44:12;;;;;;;76.47;68.53;;;1.90;99.90;;;;;;5094839;28;20651;-64
2021/12/05 13:47:16;;;;;;;76.30;67.77;;;1.90;99.90;;;;;;5095023;28;20216;-67
2021/12/05 13:50:43;;;;;;;73.77;65.60;;;1.80;99.90;;;;;;5092199;28;20289;-64
2021/12/05 13:53:49;;;;;;;76.60;68.30;;;1.90;99.90;;;;;;5015205;28;20229;-66
2021/12/05 13:56:42;;;;;;;74.07;66.30;;;1.90;99.90;;;;;;5009136;28;20822;-63
2021/12/05 13:59:31;;;;;;;76.77;68.80;;;1.80;99.90;;;;;;5093846;28;20242;-64
2021/12/05 14:02:39;;;;;;;76.70;68.53;;;1.80;99.90;;;;;;5096884;28;20242;-66
2021/12/05 14:05:30;;;;;;;78.27;67.83;;;1.80;99.90;;;;;;5095518;28;20211;-63
2021/12/05 14:08:19;;;;;;;74.53;66.87;;;1.70;99.90;;;;;;5094924;28;20228;-64
2021/12/05 14:11:12;;;;;;;75.80;67.57;;;1.60;99.90;;;;;;5096309;28;20960;-66
2021/12/05 14:14:05;;;;;;;77.10;67.30;;;1.60;99.90;;;;;;5097608;27;20223;-64
2021/12/05 14:16:56;;;;;;;76.13;67.57;;;1.70;99.90;;;;;;5092475;27;20228;-66
2021/12/05 14:19:47;;;;;;;75.67;67.80;;;1.40;99.90;;;;;;5096276;28;20355;-64
2021/12/05 14:22:38;;;;;;;71.90;64.50;;;1.40;99.90;;;;;;5096129;27;20223;-67
2021/12/05 14:25:29;;;;;;;73.03;64.03;;;1.30;99.90;;;;;;5096375;27;20306;-64
2021/12/05 14:28:18;;;;;;;72.17;64.67;;;1.30;99.90;;;;;;5098725;27;20226;-64
2021/12/05 14:31:08;;;;;;;75.73;68.03;;;1.40;99.90;;;;;;5102754;28;20642;-64
2021/12/05 14:33:58;;;;;;;73.33;65.43;;;1.40;99.90;;;;;;5105387;28;20257;-64
2021/12/05 14:36:52;;;;;;;71.63;64.03;;;1.50;99.90;;;;;;5099198;28;20211;-65
2021/12/05 14:39:43;;;;;;;66.37;59.47;;;1.40;99.90;;;;;;5097223;28;20222;-64
2021/12/05 14:42:34;;;;;;;74.80;66.33;;;1.40;99.90;;;;;;5111149;27;20264;-63
2021/12/05 14:45:27;;;;;;;76.53;68.43;;;1.30;99.90;;;;;;5101735;28;20214;-63
2021/12/05 14:48:18;;;;;;;75.00;67.03;;;1.30;99.90;;;;;;5098454;27;20247;-64
2021/12/05 14:51:10;;;;;;;75.33;67.33;;;1.40;99.90;;;;;;5104126;28;20222;-59
2021/12/05 14:54:00;;;;;;;74.87;67.03;;;1.20;99.90;;;;;;5102759;27;20666;-64
2021/12/05 14:56:49;;;;;;;76.13;68.03;;;1.30;99.90;;;;;;5094520;28;20346;-65
2021/12/05 14:59:39;;;;;;;81.73;72.63;;;1.30;99.90;;;;;;5099078;28;20583;-63
2021/12/05 15:02:28;;;;;;;78.27;69.93;;;1.40;99.90;;;;;;5098068;28;20245;-66
2021/12/05 15:05:20;;;;;;;80.33;71.27;;;1.40;99.90;;;;;;5096488;28;20223;-63
2021/12/05 15:08:11;;;;;;;78.27;70.03;;;1.30;99.90;;;;;;5087325;28;20267;-66
2021/12/05 15:11:04;;;;;;;73.97;66.07;;;1.30;99.90;;;;;;5094396;28;20227;-64
2021/12/05 15:14:03;;;;;;;79.17;69.03;;;1.40;99.90;;;;;;5099316;27;20229;-64
2021/12/05 15:16:55;;;;;;;77.00;67.87;;;1.30;99.90;;;;;;5098377;28;20840;-63
2021/12/05 15:19:48;;;;;;;83.40;74.27;;;1.30;99.90;;;;;;5080891;28;20223;-64
2021/12/05 15:23:06;;;;;;;73.57;65.57;;;1.30;99.90;;;;;;5078816;28;20212;-64
2021/12/05 15:25:54;;;;;;;81.57;72.70;;;1.30;99.90;;;;;;5095762;28;20223;-64
2021/12/05 15:28:43;;;;;;;80.43;70.20;;;1.40;99.90;;;;;;5075155;28;20311;-64
2021/12/05 15:31:37;;;;;;;75.80;68.03;;;1.20;99.90;;;;;;5076878;28;20224;-64
2021/12/05 15:34:32;;;;;;;77.93;69.67;;;1.30;99.90;;;;;;5076101;28;20647;-64
2021/12/05 15:37:25;;;;;;;82.00;71.20;;;1.30;99.90;;;;;;5077142;28;20220;-62
2021/12/05 15:40:16;;;;;;;79.93;71.53;;;1.30;99.90;;;;;;5078197;28;20722;-66
2021/12/05 15:43:08;;;;;;;78.30;68.53;;;1.30;99.90;;;;;;5068131;28;20227;-63
2021/12/05 15:45:59;;;;;;;77.83;69.50;;;1.30;99.90;;;;;;5082531;28;20220;-64
2021/12/05 15:48:49;;;;;;;75.07;66.73;;;1.30;99.90;;;;;;5090386;28;20238;-64
2021/12/05 15:51:37;;;;;;;77.93;69.63;;;1.30;99.90;;;;;;5064859;28;20212;-63
2021/12/05 15:54:26;;;;;;;78.47;69.80;;;1.30;99.90;;;;;;5077864;28;20216;-66
2021/12/05 15:57:26;;;;;;;81.63;71.17;;;1.30;99.90;;;;;;5071560;28;20215;-66
2021/12/05 16:00:20;;;;;;;76.53;68.33;;;1.30;99.90;;;;;;5062557;28;20295;-65
2021/12/05 16:03:11;;;;;;;70.47;63.23;;;1.40;99.90;;;;;;5072955;28;20575;-66
2021/12/05 16:06:01;;;;;;;75.67;67.97;;;1.30;99.90;;;;;;5074714;28;20327;-64
2021/12/05 16:08:51;;;;;;;76.43;68.20;;;1.30;99.90;;;;;;5072963;28;20227;-64
2021/12/05 16:11:40;;;;;;;83.87;70.90;;;1.30;99.90;;;;;;5075568;28;20225;-64
2021/12/05 16:17:34;;;;;;;76.27;67.27;;;1.30;99.90;;;;;;5073513;28;20702;-63
2021/12/05 16:20:27;;;;;;;79.20;66.90;;;1.30;99.90;;;;;;5062564;28;20231;-64
2021/12/05 16:23:19;;;;;;;80.17;69.53;;;1.40;99.90;;;;;;5077825;28;20754;-65
2021/12/05 16:26:10;;;;;;;78.27;69.67;;;1.40;99.90;;;;;;5075016;28;20605;-65
2021/12/05 16:29:01;;;;;;;81.30;72.53;;;1.40;99.90;;;;;;5076840;28;20228;-64
2021/12/05 16:31:55;;;;;;;74.40;66.63;;;1.40;99.90;;;;;;5060062;28;20228;-65
2021/12/05 16:34:48;;;;;;;78.90;68.77;;;1.40;99.90;;;;;;5075419;28;20223;-64
2021/12/05 16:37:39;;;;;;;81.67;71.97;;;1.30;99.90;;;;;;5058042;28;20316;-64
2021/12/05 16:40:56;;;;;;;77.03;66.80;;;1.50;99.90;;;;;;5071766;28;20231;-65
2021/12/05 16:43:51;;;;;;;80.67;71.90;;;1.40;99.90;;;;;;5061691;28;20990;-65
2021/12/05 16:46:42;;;;;;;74.27;66.43;;;1.60;99.90;;;;;;5066793;28;20238;-64
2021/12/05 16:49:35;;;;;;;77.33;67.77;;;1.50;99.90;;;;;;5074921;28;20360;-66
2021/12/05 16:52:28;;;;;;;76.93;68.37;;;1.40;99.90;;;;;;5071462;28;20228;-66
2021/12/05 16:55:25;;;;;;;79.47;70.73;;;1.50;99.90;;;;;;5060012;28;20278;-66
2021/12/05 16:58:18;;;;;;;75.87;65.90;;;1.50;99.90;;;;;;5063448;28;20223;-65
2021/12/05 17:01:07;;;;;;;80.47;71.77;;;1.60;99.90;;;;;;5065119;28;20302;-63
2021/12/05 17:03:56;;;;;;;81.80;73.07;;;1.60;99.90;;;;;;5062284;28;20239;-64
2021/12/05 17:06:53;;;;;;;84.37;75.03;;;1.60;99.90;;;;;;5071018;28;20232;-62
2021/12/05 17:09:42;;;;;;;82.90;73.03;;;1.60;99.90;;;;;;5072733;28;20216;-63
2021/12/05 17:12:34;;;;;;;81.60;71.90;;;1.50;99.90;;;;;;5055593;28;20215;-64
2021/12/05 17:15:28;;;;;;;79.60;67.87;;;1.60;99.90;;;;;;5071188;28;20599;-67
2021/12/05 17:18:20;;;;;;;83.40;74.27;;;1.40;99.90;;;;;;5058354;28;20537;-65
2021/12/05 17:21:14;;;;;;;85.20;75.13;;;1.50;99.90;;;;;;5073880;28;20306;-65
2021/12/05 17:24:10;;;;;;;87.80;74.17;;;1.60;99.90;;;;;;5073046;28;20222;-64
2021/12/05 17:27:02;;;;;;;84.27;74.97;;;1.70;99.90;;;;;;5075175;28;20216;-64
2021/12/05 17:29:52;;;;;;;80.27;71.67;;;1.70;99.90;;;;;;5050896;28;20223;-66
2021/12/05 17:32:41;;;;;;;80.87;70.07;;;1.80;99.90;;;;;;5045454;28;20231;-66
2021/12/05 17:35:30;;;;;;;83.37;71.03;;;1.70;99.90;;;;;;5053376;28;20310;-64
2021/12/05 17:38:32;;;;;;;88.53;78.73;;;1.60;99.90;;;;;;5038322;28;20248;-65
2021/12/05 17:41:23;;;;;;;93.67;78.97;;;1.70;99.90;;;;;;5037405;28;20219;-65
2021/12/05 17:44:15;;;;;;;90.27;75.90;;;1.70;99.90;;;;;;5046337;28;20250;-65
2021/12/05 17:47:07;;;;;;;87.47;73.87;;;1.70;99.90;;;;;;5033288;28;20217;-68
2021/12/05 17:49:59;;;;;;;87.47;74.77;;;1.60;99.90;;;;;;5050839;28;20236;-64
2021/12/05 17:52:49;;;;;;;84.30;74.70;;;1.90;99.90;;;;;;5043601;28;20236;-62
2021/12/05 17:55:43;;;;;;;84.73;75.40;;;1.80;99.90;;;;;;5052132;28;20240;-67
2021/12/05 17:58:52;;;;;;;85.37;73.30;;;1.70;99.90;;;;;;5041125;28;20529;-65
2021/12/05 18:04:51;;;;;;;91.47;77.43;;;1.80;99.90;;;;;;5077958;28;20722;-67
2021/12/05 18:07:39;;;;;;;91.17;75.37;;;1.80;99.90;;;;;;5060810;28;20234;-64
2021/12/05 18:10:31;;;;;;;91.80;76.43;;;1.90;99.90;;;;;;5076358;28;20714;-65
2021/12/05 18:13:22;;;;;;;89.00;73.73;;;1.70;99.90;;;;;;5058751;28;20223;-64
2021/12/05 18:16:15;;;;;;;93.87;81.10;;;1.90;99.90;;;;;;5075161;28;20264;-70
2021/12/05 18:19:07;;;;;;;94.17;75.53;;;1.80;99.90;;;;;;5066845;28;20408;-67
2021/12/05 18:21:55;;;;;;;90.37;74.63;;;1.80;99.90;;;;;;5076170;28;20212;-63
2021/12/05 18:24:45;;;;;;;88.73;78.30;;;1.80;99.90;;;;;;5062217;28;20230;-65
2021/12/05 18:27:34;;;;;;;95.07;76.90;;;1.80;99.90;;;;;;5086138;27;20305;-68
2021/12/05 18:30:25;;;;;;;93.90;78.30;;;1.90;99.90;;;;;;5101794;27;20218;-66
2021/12/05 18:33:18;;;;;;;94.83;81.13;;;1.80;99.90;;;;;;5095013;27;20222;-68
2021/12/05 18:36:07;;;;;;;93.13;75.90;;;1.90;99.90;;;;;;5099408;27;20711;-68
2021/12/05 18:38:56;;;;;;;90.00;77.00;;;2.00;99.90;;;;;;5096376;28;20223;-67
2021/12/05 18:41:45;;;;;;;94.43;78.43;;;1.90;99.90;;;;;;5091569;28;20215;-67
2021/12/05 18:44:39;;;;;;;89.87;75.13;;;1.90;99.90;;;;;;5094972;28;20329;-65
2021/12/05 18:47:28;;;;;;;85.47;74.37;;;2.00;99.90;;;;;;5088772;28;21126;-67
2021/12/05 18:50:18;;;;;;;93.70;77.03;;;1.90;99.90;;;;;;5086871;27;20228;-66
2021/12/05 18:53:07;;;;;;;91.67;76.23;;;2.00;99.90;;;;;;5089413;27;20598;-68
2021/12/05 18:55:56;;;;;;;95.90;75.73;;;1.90;99.90;;;;;;5089332;28;20227;-68